Werte bis 5 Uhr SommerzeitDiagramme Harleshausen: Tagesdaten MonatsdatenCSV-Datei: Harleshausen17.csv

Wetterdaten 2017 Station: Harleshausen
Temperaturen in °C relative Nieder- Global- Wind Wind Wind- Sonnen-
Datum Boden Boden Luft Luft Luft Luft Feuchte schlag strahlung max richtung schein
20 cm 5 cm 20 cm 2 m 2 m max 2 m min % mm W/m2*d m/s m/s ° h

19.11.2017 7,4 6,5 3,5 4,6 7,4 2,3 78 1,2 689 1,3 4,0 --- ---
18.11.2017 7,8 6,9 3,0 3,2 5,0 0,1 86 2,1 244 1,1 3,2 --- ---
17.11.2017 8,2 7,7 4,5 4,1 7,5 1,2 97 1,3 449 0,4 1,8 --- ---
16.11.2017 8,3 7,8 5,5 5,3 6,7 3,9 89 0,1 236 1,0 2,2 --- ---
15.11.2017 8,1 7,5 6,2 6,2 7,7 4,7 87 0,1 398 0,9 2,1 --- ---
14.11.2017 8,0 7,2 4,6 4,4 7,2 1,3 88 0,0 745 0,8 2,3 --- ---
13.11.2017 8,2 4,8 4,1 4,0 8,5 0,9 88 1,3 762 0,4 1,8 --- ---
12.11.2017 8,7 8,0 3,4 3,2 5,2 1,9 92 6,8 258 0,5 1,6 --- ---
11.11.2017 9,0 8,0 4,8 5,5 7,0 4,0 79 1,0 517 1,3 3,2 --- ---
10.11.2017 9,5 -0,8 5,9 6,3 7,8 5,3 88 4,8 314 1,5 3,8 --- ---
09.11.2017 9,6 9,1 6,9 7,0 9,0 5,5 83 0,0 407 0,5 2,3 --- ---
08.11.2017 9,6 8,8 7,0 6,9 7,8 5,8 89 0,0 123 0,4 1,2 --- ---
07.11.2017 9,7 7,8 4,4 3,8 6,9 -1,4 93 0,0 367 0,4 1,5 --- ---
06.11.2017 10,3 9,3 5,3 4,9 7,1 1,5 87 0,0 470 0,3 1,1 --- ---
05.11.2017 10,6 10,3 8,3 8,6 12,4 5,3 91 15,7 237 0,6 2,1 --- ---
04.11.2017 10,6 10,0 7,5 7,1 12,3 2,2 92 0,0 592 0,8 3,3 --- ---
03.11.2017 11,0 10,4 6,7 6,7 12,0 2,9 93 0,0 741 0,3 1,6 --- ---
02.11.2017 11,1 10,7 8,9 9,3 13,8 7,2 76 0,3 696 0,8 2,3 --- ---
01.11.2017 11,1 10,3 8,7 8,9 12,1 6,7 85 0,5 691 1,1 2,3 --- ---
31.10.2017 11,2 10,5 6,8 6,8 9,3 3,8 83 0,4 632 0,7 1,8 --- ---
30.10.2017 11,7 10,9 6,9 6,9 10,8 4,9 75 0,5 1032 0,8 2,4 --- ---
29.10.2017 12,3 11,9 8,8 9,5 13,1 6,4 74 3,0 1331 1,7 5,0 --- ---
28.10.2017 12,6 12,2 9,1 9,7 10,8 8,4 73 1,6 441 1,4 3,2 --- ---
27.10.2017 12,9 12,8 10,6 10,7 13,6 9,1 80 2,3 1184 0,8 4,1 --- ---
26.10.2017 12,9 13,0 11,7 12,2 16,7 8,2 84 0,0 963 0,4 1,8 --- ---
25.10.2017 12,8 13,1 13,8 14,4 18,4 11,6 82 0,2 1134 1,0 2,8 --- ---
24.10.2017 12,6 12,4 10,7 10,9 12,8 7,9 91 0,0 292 1,1 2,7 --- ---
23.10.2017 12,8 12,5 9,5 9,7 12,1 8,0 83 0,4 523 0,8 1,9 --- ---
22.10.2017 13,1 12,8 9,5 9,9 11,4 8,5 83 0,4 727 1,3 3,4 --- ---
21.10.2017 13,3 13,1 11,1 11,7 14,0 8,9 84 1,8 539 1,0 3,1 --- ---
20.10.2017 13,5 13,4 11,8 12,5 17,7 9,6 78 0,7 928 0,7 3,2 --- ---
19.10.2017 13,6 13,4 12,1 12,1 19,4 5,9 80 0,0 1715 0,5 2,2 --- ---
18.10.2017 13,8 14,0 12,9 12,5 19,4 8,5 85 0,1 1800 0,4 1,9 --- ---
17.10.2017 13,8 14,0 14,0 14,5 21,8 8,9 83 0,0 1688 0,4 1,8 --- ---
16.10.2017 13,8 14,0 14,4 15,0 21,2 9,1 82 0,0 1766 0,9 2,4 --- ---
15.10.2017 13,7 13,9 14,6 14,6 21,7 9,0 79 0,0 2025 0,7 2,6 --- ---
14.10.2017 13,5 13,9 15,5 15,7 21,3 11,3 82 0,0 1965 0,7 2,1 --- ---
13.10.2017 13,2 13,2 12,7 12,8 20,2 7,6 80 0,0 1764 0,7 2,3 --- ---
12.10.2017 13,3 13,5 12,7 13,3 17,0 9,8 69 0,0 1577 1,1 3,2 --- ---
11.10.2017 13,3 13,3 12,5 13,1 15,4 10,7 81 0,1 583 0,9 2,6 --- ---
10.10.2017 13,1 11,8 11,8 11,9 15,6 10,2 89 0,9 645 0,8 1,9 --- ---
09.10.2017 13,0 12,3 10,2 9,5 13,6 6,1 83 0,6 1327 0,5 1,8 --- ---
08.10.2017 13,1 9,7 10,7 10,6 14,4 7,0 86 2,2 1406 0,7 2,0 --- ---
07.10.2017 13,3 7,4 9,6 9,8 11,0 8,8 83 2,7 703 1,3 3,4 --- ---
06.10.2017 13,5 13,1 10,1 10,3 12,9 8,9 78 0,9 1314 1,3 2,9 --- ---
13.09.2017 16,2 10,1 13,1 13,3 18,8 10,3 77 4,8 2300 2,2 5,3 --- ---
12.09.2017 16,5 15,2 13,4 13,1 18,3 9,7 75 0,7 2306 1,2 3,5 --- ---
11.09.2017 16,8 10,8 13,8 13,6 18,3 10,0 72 0,3 1999 1,5 4,2 --- ---
10.09.2017 17,1 16,4 14,2 13,0 17,6 9,3 79 0,0 2981 0,7 2,8 --- ---
09.09.2017 17,2 17,0 14,7 14,8 18,9 11,8 79 2,4 1816 1,3 3,0 --- ---
08.09.2017 17,5 17,2 14,6 14,9 17,5 13,4 75 0,3 1132 1,6 3,6 --- ---
07.09.2017 17,9 17,8 14,7 14,6 18,7 11,8 70 0,4 1800 0,9 2,6 --- ---
06.09.2017 18,2 18,7 17,3 17,1 20,9 12,9 72 1,9 2491 0,9 3,1 --- ---
05.09.2017 17,6 17,8 16,9 15,9 24,9 7,3 76 0,0 2811 0,6 2,3 --- ---
04.09.2017 17,8 17,7 15,3 13,6 23,4 6,3 73 0,0 3272 0,3 2,4 --- ---
03.09.2017 18,0 17,9 15,3 12,9 21,8 7,1 76 0,0 3761 0,3 1,4 --- ---
02.09.2017 18,6 18,3 14,7 13,0 20,1 8,8 78 0,0 2336 0,3 2,6 --- ---
01.09.2017 19,2 19,0 15,2 13,3 20,5 8,1 77 0,0 2926 0,2 1,2 --- ---
31.08.2017 19,9 20,4 18,0 17,6 22,5 11,4 78 3,2 1866 0,8 2,3 --- ---
30.08.2017 19,6 20,5 21,6 21,5 30,0 13,2 69 0,0 3062 0,8 3,2 --- ---
29.08.2017 19,4 20,1 20,5 19,5 28,8 10,9 70 0,0 4134 0,5 1,9 --- ---
28.08.2017 19,4 20,0 19,4 17,6 26,2 9,7 69 0,0 4226 0,2 1,3 --- ---
27.08.2017 19,5 19,6 19,6 18,1 24,4 13,4 73 0,0 3840 0,3 1,9 --- ---
26.08.2017 19,1 20,0 20,2 19,1 26,3 14,7 85 9,6 2445 0,3 2,0 --- ---
25.08.2017 18,7 19,3 19,0 17,4 25,2 10,1 72 0,0 3542 0,2 1,4 --- ---
24.08.2017 18,7 19,0 18,9 18,1 24,5 13,5 72 0,0 2647 0,4 2,0 --- ---
23.08.2017 18,2 18,8 18,5 16,5 26,0 7,5 70 0,0 4296 0,3 1,5 --- ---
22.08.2017 18,3 18,5 16,2 14,2 22,5 6,9 75 0,0 3489 0,4 2,0 --- ---
21.08.2017 18,5 18,8 16,2 14,3 21,6 7,9 74 0,0 3589 0,3 1,7 --- ---
20.08.2017 18,8 18,8 16,0 14,8 21,2 11,0 74 1,0 2937 0,7 2,6 --- ---
19.08.2017 19,3 19,3 16,1 15,1 19,8 10,6 76 2,3 2796 0,8 2,8 --- ---
18.08.2017 19,8 20,3 18,6 18,1 22,9 15,2 88 13,7 1347 0,5 2,0 --- ---
17.08.2017 19,8 20,5 20,4 19,7 25,4 13,9 72 0,0 2772 0,7 2,7 --- ---
16.08.2017 19,5 20,6 20,9 19,8 25,7 15,6 72 7,4 3507 0,3 1,6 --- ---
15.08.2017 18,9 19,7 20,6 20,0 27,9 12,4 71 0,0 2725 0,7 2,7 --- ---
14.08.2017 18,4 19,1 18,8 17,8 25,0 9,9 73 0,0 3317 0,4 1,6 --- ---
13.08.2017 18,1 18,4 18,3 17,1 23,9 12,7 77 1,6 2849 0,3 1,3 --- ---
12.08.2017 17,9 17,5 14,1 13,4 17,3 10,3 89 3,8 1433 0,9 2,1 --- ---
11.08.2017 18,7 18,1 14,3 13,4 14,7 11,4 97 39,6 498 0,5 1,3 --- ---
10.08.2017 19,7 19,6 16,2 15,5 18,4 13,6 83 17,4 1095 0,5 2,2 --- ---
09.08.2017 19,8 20,3 19,6 18,4 24,8 13,5 63 0,0 4185 0,8 2,5 --- ---
08.08.2017 19,9 20,2 18,7 18,2 25,0 11,0 68 0,0 2478 0,6 2,0 --- ---
07.08.2017 19,9 20,4 19,5 17,2 26,6 7,5 63 0,0 5154 0,4 1,8 --- ---
06.08.2017 20,3 20,8 18,9 16,7 23,0 10,8 64 0,0 4569 0,5 2,5 --- ---
05.08.2017 20,5 21,1 19,1 17,4 23,3 13,4 76 0,8 3358 0,5 1,9 --- ---
04.08.2017 20,7 21,6 21,6 20,9 25,8 16,6 55 0,0 3875 0,9 3,2 --- ---
03.08.2017 20,6 21,6 22,1 21,4 28,1 17,0 70 0,2 3314 0,9 3,3 --- ---
02.08.2017 20,4 21,4 21,8 20,7 26,8 15,4 72 0,1 3425 0,6 2,6 --- ---
01.08.2017 20,4 21,1 20,1 19,8 23,9 16,8 84 17,3 1919 0,8 2,9 --- ---
31.07.2017 20,2 21,4 22,9 21,8 28,6 14,1 61 0,4 4644 0,8 3,3 --- ---
30.07.2017 19,7 21,1 24,1 23,4 29,3 17,0 61 0,0 4868 1,3 4,0 --- ---
29.07.2017 18,9 20,0 21,5 20,6 26,6 15,4 63 0,0 4283 1,0 2,9 --- ---
28.07.2017 18,5 18,5 18,5 17,2 22,6 11,3 67 0,1 3939 0,8 3,0 --- ---
27.07.2017 17,9 17,7 18,0 17,1 23,2 11,6 80 3,5 2498 0,7 2,0 --- ---
26.07.2017 17,8 17,4 15,3 14,9 19,8 12,2 85 6,8 1471 0,7 1,8 --- ---
25.07.2017 18,5 17,8 13,8 13,4 14,6 12,6 96 46,0 699 0,7 2,1 --- ---
24.07.2017 20,0 18,5 14,1 13,3 15,9 11,6 90 27,0 811 0,5 1,6 --- ---
23.07.2017 21,0 21,5 19,7 18,6 23,2 14,5 65 9,6 3747 1,0 5,3 --- ---
22.07.2017 21,1 21,9 22,0 20,8 27,8 16,1 69 3,6 3961 0,6 2,4 --- ---
21.07.2017 20,8 21,8 22,9 21,1 27,2 16,5 59 0,0 4783 0,6 2,1 --- ---
20.07.2017 20,7 21,6 20,8 20,3 25,2 16,1 81 3,0 2316 0,8 2,4 --- ---
19.07.2017 20,4 21,9 24,5 22,8 33,6 15,0 66 5,7 4683 0,6 5,1 --- ---
18.07.2017 19,6 20,8 22,0 19,6 28,8 9,8 64 0,0 5324 0,6 2,1 --- ---
17.07.2017 19,4 20,3 19,9 18,6 23,7 13,6 79 1,4 2798 0,4 1,6 --- ---
16.07.2017 19,1 19,4 17,7 16,8 22,2 10,1 74 0,0 2142 0,6 2,3 --- ---
15.07.2017 19,4 19,6 16,3 15,2 20,6 11,4 74 0,7 2774 0,5 2,5 --- ---
14.07.2017 19,7 20,0 17,3 15,3 23,7 8,4 71 1,2 3479 0,4 2,1 --- ---
13.07.2017 19,8 20,2 17,2 14,5 21,3 8,6 66 0,0 4960 0,6 2,0 --- ---
12.07.2017 20,8 20,7 16,3 15,8 18,5 11,4 89 18,0 1657 1,0 2,9 --- ---
11.07.2017 21,2 22,2 21,3 19,9 26,3 15,9 67 0,0 4137 0,9 2,3 --- ---
10.07.2017 21,5 22,3 20,8 19,9 25,4 17,3 84 8,6 2202 0,4 1,9 --- ---
09.07.2017 21,4 22,9 24,2 21,9 28,2 16,1 69 0,0 4388 0,6 2,3 --- ---
08.07.2017 21,0 22,5 23,5 22,0 28,5 16,1 63 0,0 4134 0,5 1,7 --- ---
07.07.2017 20,6 22,2 24,1 22,9 31,8 16,8 67 1,0 4541 0,9 2,5 --- ---
06.07.2017 19,8 21,2 22,6 20,7 30,4 12,2 69 0,2 4643 0,4 2,4 --- ---
05.07.2017 19,3 20,5 21,4 19,4 27,0 13,5 67 0,0 4196 0,5 2,6 --- ---
04.07.2017 19,0 19,8 19,5 18,2 23,9 12,6 65 0,0 3325 0,4 2,3 --- ---
03.07.2017 18,4 19,3 19,3 17,4 25,2 9,8 60 0,0 5193 0,6 2,4 --- ---
02.07.2017 18,4 18,6 16,2 15,9 19,4 12,3 79 0,5 1960 0,6 2,0 --- ---
01.07.2017 18,9 19,0 15,8 15,4 18,1 13,2 82 1,0 1436 0,8 3,1 --- ---
30.06.2017 19,1 19,5 17,9 17,3 21,6 14,2 69 3,2 3249 1,1 3,0 --- ---
29.06.2017 19,4 19,7 16,8 15,9 19,1 13,1 92 12,6 1281 0,2 1,8 --- ---
28.06.2017 19,5 20,1 19,1 18,6 24,4 15,1 83 9,9 2025 0,5 2,5 --- ---
27.06.2017 19,5 19,9 18,2 17,0 23,6 11,0 76 0,0 2522 0,4 1,6 --- ---
26.06.2017 20,1 20,4 18,6 17,7 22,4 12,7 70 0,2 2152 0,8 3,0 --- ---
25.06.2017 20,4 21,2 20,6 19,6 25,4 17,0 68 0,8 3402 1,0 3,3 --- ---
24.06.2017 20,6 21,3 20,5 19,1 23,9 13,6 63 0,0 4177 1,0 3,2 --- ---
23.06.2017 20,9 22,0 21,8 20,9 26,7 16,9 62 0,0 3929 0,9 2,5 --- ---
22.06.2017 20,9 22,2 24,2 22,9 35,0 14,2 67 5,0 4305 0,9 4,4 --- ---
21.06.2017 20,6 22,2 24,0 21,3 29,2 13,6 61 0,0 5605 0,6 2,7 --- ---
20.06.2017 20,0 21,9 25,2 22,5 31,4 13,2 62 0,0 5657 0,8 3,7 --- ---
19.06.2017 19,1 20,8 24,5 22,4 31,8 12,0 60 0,0 6114 0,4 1,8 --- ---
18.06.2017 18,4 19,6 22,1 19,9 26,6 14,2 70 0,0 4287 0,5 2,2 --- ---
17.06.2017 18,4 18,4 16,0 15,2 18,7 11,7 74 0,0 1733 0,6 2,1 --- ---
16.06.2017 19,0 19,6 17,7 16,9 20,8 13,9 64 0,0 2693 0,9 2,8 --- ---
15.06.2017 18,8 20,0 21,4 19,7 28,9 10,5 65 0,7 4660 0,7 2,4 --- ---
14.06.2017 18,3 19,4 20,4 17,2 25,7 7,9 62 0,0 6153 0,6 2,6 --- ---
13.06.2017 18,7 19,0 16,6 15,9 21,3 12,5 66 0,0 2109 0,7 2,3 --- ---
12.06.2017 18,8 20,3 21,5 19,5 23,2 15,5 55 0,0 5683 0,9 3,0 --- ---
11.06.2017 18,0 19,3 21,6 20,1 29,3 10,2 62 0,0 5108 0,7 2,8 --- ---
10.06.2017 17,4 18,4 18,5 16,7 24,3 9,5 67 0,0 4635 0,5 2,6 --- ---
09.06.2017 17,3 17,8 16,8 16,1 23,8 9,8 72 0,8 2945 0,8 3,3 --- ---
08.06.2017 17,3 17,6 16,2 15,5 22,2 9,1 66 0,2 3295 1,1 3,0 --- ---
07.06.2017 17,7 17,7 13,3 12,5 17,2 9,2 69 1,7 3977 1,5 3,9 --- ---
06.06.2017 18,5 18,6 15,3 14,7 20,0 9,7 73 1,8 2890 1,0 3,2 --- ---
05.06.2017 18,9 19,7 18,2 16,2 22,6 10,6 65 0,0 4157 0,5 1,9 --- ---
04.06.2017 19,1 20,0 18,1 16,4 22,4 12,4 71 17,2 4144 0,8 2,3 --- ---
03.06.2017 19,4 20,5 20,0 18,5 25,2 15,1 84 9,9 2712 0,4 2,8 --- ---
02.06.2017 19,2 20,5 21,2 19,0 28,1 10,9 68 0,1 4593 0,5 2,6 --- ---
01.06.2017 18,9 20,2 20,8 17,3 24,1 9,3 65 0,0 5905 0,7 3,2 --- ---
31.05.2017 19,0 20,1 19,8 17,8 24,4 12,3 65 0,0 4624 0,7 3,3 --- ---
30.05.2017 19,1 20,5 21,4 20,3 27,0 16,5 80 16,9 2957 0,5 2,9 --- ---
29.05.2017 18,5 20,6 26,2 24,6 32,9 16,4 61 0,0 5266 0,6 2,6 --- ---
28.05.2017 17,8 19,4 22,9 21,5 30,0 12,0 64 0,0 4227 0,4 1,8 --- ---
27.05.2017 17,2 19,1 23,1 21,0 29,3 11,3 59 0,0 5740 0,6 2,2 --- ---
26.05.2017 16,5 18,3 21,7 18,8 26,3 10,9 64 0,0 5749 0,7 2,7 --- ---
25.05.2017 16,0 17,2 18,3 15,3 22,0 9,8 72 0,0 5008 0,8 4,2 --- ---
24.05.2017 16,0 16,7 15,7 14,1 18,7 9,5 65 0,0 3316 0,7 4,4 --- ---
23.05.2017 15,8 17,1 19,3 17,5 25,7 10,1 63 0,0 4242 0,7 2,6 --- ---
22.05.2017 15,3 16,6 18,3 16,3 24,2 8,5 60 0,0 5086 0,5 1,8 --- ---
21.05.2017 15,0 15,8 15,6 14,0 22,6 5,3 63 0,0 4786 0,5 2,9 --- ---
20.05.2017 15,0 15,8 15,5 13,7 19,7 9,0 67 0,0 4972 0,9 2,8 --- ---
19.05.2017 15,7 16,3 14,4 14,1 17,4 10,1 93 14,1 891 0,6 2,5 --- ---
18.05.2017 15,5 17,0 19,8 19,6 27,9 13,1 70 1,7 4046 0,6 4,8 --- ---
17.05.2017 14,7 16,6 21,8 21,3 29,6 13,9 58 0,0 5108 0,6 2,4 --- ---
16.05.2017 13,9 15,1 17,7 17,0 25,3 8,3 62 0,0 4034 0,5 2,4 --- ---
15.05.2017 13,6 14,8 15,8 14,8 20,7 10,0 69 0,3 4114 0,5 2,4 --- ---
14.05.2017 13,2 14,2 15,2 15,0 20,2 10,7 79 5,6 2721 0,4 1,9 --- ---
13.05.2017 12,7 13,9 16,6 15,4 23,1 9,8 77 1,6 3897 0,6 2,9 --- ---
12.05.2017 12,1 13,2 15,3 14,9 20,8 11,4 79 0,7 2374 0,5 2,5 --- ---
11.05.2017 11,3 12,1 14,9 13,7 23,0 2,0 61 0,0 4223 0,6 2,2 --- ---
10.05.2017 11,0 11,5 11,5 9,4 18,7 -0,4 62 0,0 4912 0,6 3,0 --- ---
09.05.2017 11,1 11,4 9,9 7,5 12,8 2,6 63 0,0 4457 0,9 3,9 --- ---
08.05.2017 11,5 11,8 9,6 8,9 12,5 7,1 79 0,0 1168 0,9 3,4 --- ---
07.05.2017 11,1 12,2 14,4 13,0 20,5 5,8 74 0,0 3792 0,8 3,8 --- ---
06.05.2017 10,4 11,3 13,1 11,5 19,0 5,2 75 0,0 3928 0,8 3,3 --- ---
05.05.2017 10,2 10,5 9,7 8,7 11,5 6,1 85 0,0 1353 0,7 2,4 --- ---
04.05.2017 10,3 10,6 9,6 9,4 11,0 7,8 83 0,1 923 1,5 4,1 --- ---
03.05.2017 9,9 10,4 10,9 10,1 15,3 4,7 81 3,1 2367 0,8 3,5 --- ---
02.05.2017 10,0 10,1 8,3 7,8 9,5 5,9 96 13,3 612 1,0 3,7 --- ---
01.05.2017 9,7 10,1 11,0 10,5 16,0 4,6 65 0,2 2473 0,7 2,0 --- ---
30.04.2017 9,3 9,6 10,5 9,0 16,9 -0,5 59 0,0 4412 1,1 3,3 --- ---
29.04.2017 9,3 9,4 8,2 7,0 11,1 1,0 65 0,1 2632 0,7 3,1 --- ---
28.04.2017 9,0 8,9 7,5 6,0 12,7 -2,4 64 0,0 2817 0,5 2,2 --- ---
27.04.2017 9,3 9,2 7,2 5,8 11,4 -0,5 63 0,0 2623 0,7 3,2 --- ---
26.04.2017 9,4 9,5 7,9 5,9 12,0 0,2 65 0,0 3088 0,7 2,8 --- ---
25.04.2017 9,5 9,6 7,7 6,9 11,4 3,4 66 0,8 2667 0,9 3,4 --- ---
24.04.2017 9,1 9,3 9,2 7,6 16,5 -2,4 63 0,0 4247 0,9 3,6 --- ---
23.04.2017 9,3 9,3 6,5 5,8 9,7 2,1 65 0,1 2461 1,0 3,0 --- ---
22.04.2017 9,4 9,7 8,3 7,6 10,7 4,9 67 2,8 2108 1,1 4,9 --- ---
21.04.2017 9,0 9,1 8,7 8,1 14,4 0,4 64 0,0 1984 0,8 3,3 --- ---
20.04.2017 8,7 8,7 7,4 4,3 10,7 -3,9 60 0,0 4729 0,7 3,8 --- ---
19.04.2017 8,9 8,7 4,8 2,8 6,8 -1,4 64 0,0 3391 1,8 5,8 --- ---
18.04.2017 9,3 9,0 4,6 3,5 6,9 2,1 83 0,9 1794 1,5 4,4 --- ---
17.04.2017 9,6 9,6 6,6 5,0 11,0 2,4 84 3,9 2440 0,8 4,7 --- ---
16.04.2017 9,6 9,6 7,6 6,9 12,0 4,5 71 2,4 2567 1,1 3,5 --- ---
15.04.2017 9,9 9,9 7,9 8,2 11,9 5,2 72 0,2 1450 1,1 3,6 --- ---
14.04.2017 9,9 9,9 8,1 7,6 12,2 1,4 69 0,0 2016 0,6 2,2 --- ---
13.04.2017 10,2 10,4 8,6 8,6 11,6 5,1 75 3,0 1685 1,0 2,8 --- ---
12.04.2017 10,1 10,4 10,5 10,4 14,8 7,7 65 1,0 1871 1,2 3,6 --- ---
11.04.2017 10,0 10,1 9,6 8,5 14,3 4,2 60 0,0 2783 1,0 3,0 --- ---
10.04.2017 10,1 10,4 10,3 10,2 17,2 5,1 66 0,0 2280 0,8 3,3 --- ---
09.04.2017 9,7 10,3 11,9 10,9 22,1 1,1 69 0,0 4249 0,5 2,4 --- ---
08.04.2017 9,7 10,0 10,1 10,2 15,1 5,8 77 0,0 1526 0,4 1,9 --- ---
07.04.2017 9,6 9,6 8,9 8,7 12,4 4,6 72 0,0 1336 0,9 2,6 --- ---
06.04.2017 9,8 9,9 8,9 7,6 12,2 4,3 63 0,0 2744 1,1 3,7 --- ---
05.04.2017 9,9 10,2 10,0 9,1 14,4 3,2 65 0,0 2557 0,9 4,0 --- ---
04.04.2017 9,6 9,8 9,7 7,6 14,6 -0,5 70 0,0 3949 0,7 3,8 --- ---
03.04.2017 10,1 10,1 8,0 7,3 12,8 2,8 84 0,0 1794 0,8 3,5 --- ---
02.04.2017 10,2 11,1 12,8 12,0 17,4 6,3 73 0,4 2684 0,8 3,3 --- ---
01.04.2017 9,7 10,6 13,6 13,4 21,3 5,5 61 0,0 2572 0,6 2,7 --- ---
31.03.2017 9,4 10,2 13,6 14,0 22,4 4,4 59 0,0 3166 1,0 4,2 --- ---
30.03.2017 9,0 10,1 14,6 14,6 21,0 9,2 67 0,0 3016 0,8 2,7 --- ---
29.03.2017 8,3 8,8 11,6 12,2 17,5 6,7 67 0,0 1752 1,0 3,8 --- ---
28.03.2017 7,8 8,2 11,0 10,7 22,2 -0,2 60 0,0 3686 0,7 2,9 --- ---
27.03.2017 7,6 7,9 9,5 8,8 19,2 -0,9 57 0,0 3702 0,4 2,0 --- ---
26.03.2017 7,6 7,8 8,5 7,7 14,0 1,7 64 0,0 3496 0,9 4,0 --- ---
25.03.2017 7,7 7,7 7,6 6,9 14,1 -0,4 61 0,0 3342 1,1 4,8 --- ---
24.03.2017 7,9 8,3 9,0 8,4 13,0 4,3 67 0,0 3015 1,5 4,5 --- ---
23.03.2017 7,6 8,1 9,8 8,8 13,4 6,4 73 0,0 2452 1,0 3,7 --- ---
22.03.2017 7,5 7,5 6,2 5,4 10,9 -1,5 66 0,0 2684 0,8 2,6 --- ---
21.03.2017 7,8 8,3 8,8 9,1 12,6 5,2 66 0,8 1395 1,3 3,5 --- ---
20.03.2017 7,4 8,1 11,0 11,0 14,1 8,9 68 0,0 1713 1,9 3,7 --- ---
19.03.2017 6,9 7,4 9,6 10,0 14,0 6,6 78 1,8 1327 1,5 4,3 --- ---
18.03.2017 6,6 6,7 7,1 7,7 11,5 4,3 84 7,0 774 1,6 4,0 --- ---
17.03.2017 6,6 6,7 7,2 8,0 10,8 5,6 60 0,0 1093 1,0 2,7 --- ---
16.03.2017 6,4 6,8 9,1 8,6 16,6 -0,1 63 0,0 2951 0,6 2,4 --- ---
15.03.2017 6,2 6,8 9,5 9,4 13,8 5,0 72 0,0 1984 0,8 3,2 --- ---
14.03.2017 5,6 6,0 8,6 8,5 14,5 4,2 69 0,0 2298 0,5 2,5 --- ---
13.03.2017 5,2 5,0 4,6 4,4 12,2 -2,6 71 0,0 2292 0,6 2,4 --- ---
12.03.2017 5,3 5,1 4,6 4,2 11,6 -1,6 70 0,0 2688 0,8 3,2 --- ---
11.03.2017 5,5 5,4 4,6 4,6 11,5 -0,7 74 0,0 1753 0,5 1,8 --- ---
10.03.2017 5,7 5,8 5,7 5,8 10,3 1,6 71 0,4 1599 1,1 3,2 --- ---
09.03.2017 5,3 5,5 6,8 7,1 11,1 2,5 85 1,2 1326 1,1 3,6 --- ---
08.03.2017 5,5 5,2 3,4 3,8 6,4 0,3 91 13,5 567 1,7 5,4 --- ---
07.03.2017 5,6 5,7 5,2 5,1 7,7 3,8 87 1,5 960 0,8 2,8 --- ---
06.03.2017 5,5 5,6 5,4 5,3 9,9 3,4 85 0,5 1193 0,9 2,6 --- ---
05.03.2017 5,4 5,7 6,8 7,1 9,7 3,9 78 1,1 1507 1,6 6,0 --- ---
04.03.2017 4,9 5,1 7,5 8,3 15,8 1,2 61 0,0 1413 0,7 4,5 --- ---
03.03.2017 4,8 4,8 5,6 6,2 10,3 0,9 62 0,1 1536 1,2 3,9 --- ---
02.03.2017 5,0 5,0 5,7 6,3 7,7 3,1 70 2,3 1398 2,2 5,4 --- ---
01.03.2017 4,9 4,7 4,2 4,4 8,5 0,4 83 3,6 1520 1,6 4,3 --- ---
28.02.2017 5,2 5,3 5,6 5,8 9,0 2,3 74 3,4 1587 2,3 5,1 --- ---
27.02.2017 4,8 5,3 9,5 10,0 12,4 6,7 62 2,3 1242 1,9 6,4 --- ---
26.02.2017 4,1 4,3 7,3 7,8 12,7 4,6 57 0,0 1058 1,3 3,1 --- ---
25.02.2017 4,0 3,4 2,1 2,5 6,9 -2,8 79 0,0 1089 1,1 3,2 --- ---
24.02.2017 4,8 4,6 2,6 3,2 6,7 -0,9 74 4,1 1169 1,7 7,5 --- ---
23.02.2017 4,9 5,4 7,0 7,8 8,9 5,7 83 5,5 469 2,1 6,3 --- ---
22.02.2017 4,3 4,9 8,3 9,1 10,9 5,5 82 4,3 502 2,0 4,6 --- ---
21.02.2017 3,8 4,4 7,4 8,4 11,0 3,5 77 3,5 876 1,1 3,3 --- ---
20.02.2017 3,0 3,2 5,7 6,3 9,0 3,5 91 0,6 425 1,0 2,7 --- ---
19.02.2017 2,7 2,3 1,2 1,7 6,1 -3,3 90 0,8 864 0,7 2,5 --- ---
18.02.2017 2,7 3,0 4,0 4,5 7,9 -1,6 83 0,6 675 0,5 2,0 --- ---
17.02.2017 2,1 2,1 3,8 4,5 7,2 1,7 93 2,3 491 0,7 2,1 --- ---
16.02.2017 1,6 1,3 2,9 3,6 8,9 -1,3 85 1,3 784 0,4 1,4 --- ---
15.02.2017 1,5 0,9 1,1 1,4 9,7 -5,0 77 0,0 1614 0,5 2,3 --- ---
14.02.2017 1,6 1,1 1,2 1,9 11,1 -3,9 64 0,0 1628 0,6 2,5 --- ---
13.02.2017 1,8 1,5 1,3 1,8 6,6 -1,5 66 0,0 1514 1,2 3,2 --- ---
12.02.2017 1,8 1,4 0,5 0,4 1,3 -0,2 82 0,0 503 1,0 3,0 --- ---
11.02.2017 1,5 1,0 0,8 0,4 5,2 -3,8 83 0,0 1136 0,8 3,0 --- ---
10.02.2017 1,7 0,9 -1,6 -1,8 -0,9 -3,0 78 0,0 291 1,0 3,1 --- ---
09.02.2017 1,9 1,3 -1,5 -2,1 0,3 -3,8 73 0,0 1048 1,0 3,1 --- ---
08.02.2017 2,2 1,7 -0,8 -1,2 0,4 -3,8 79 0,0 650 1,0 2,9 --- ---
07.02.2017 2,4 2,0 0,1 0,1 1,1 -0,5 86 0,0 249 0,9 2,3 --- ---
06.02.2017 2,3 2,0 1,3 1,4 3,8 -2,0 91 0,0 524 0,6 2,5 --- ---
05.02.2017 2,4 2,5 2,6 3,2 7,3 -1,5 87 0,0 733 0,6 1,9 --- ---
04.02.2017 1,9 2,1 5,1 5,8 9,5 3,4 77 0,0 902 0,7 3,3 --- ---
03.02.2017 1,2 1,2 3,7 4,7 7,5 -0,1 94 0,0 384 0,8 1,9 --- ---
02.02.2017 0,8 0,5 2,7 3,6 6,7 1,1 89 0,0 509 1,1 2,3 --- ---
01.02.2017 0,7 0,1 0,6 1,1 2,2 -0,6 83 0,0 370 1,1 2,5 --- ---
31.01.2017 0,7 0,0 1,0 1,3 2,3 0,4 94 0,0 259 0,9 2,3 --- ---
30.01.2017 0,7 0,0 1,9 2,8 4,6 0,0 93 0,0 218 1,2 3,8 --- ---
29.01.2017 0,7 0,0 0,6 1,4 3,7 -1,6 75 0,0 850 1,2 3,5 --- ---
28.01.2017 0,7 0,0 -2,8 -2,4 3,1 -8,3 74 0,0 1084 1,0 3,3 --- ---
27.01.2017 0,8 0,0 -4,4 -3,5 2,8 -9,2 78 0,0 940 0,5 2,5 --- ---
26.01.2017 0,8 0,1 -1,9 -1,2 2,4 -6,4 70 0,0 980 0,9 2,1 --- ---
25.01.2017 0,8 0,0 -1,5 -1,3 0,3 -4,3 82 0,0 342 0,8 2,5 --- ---
24.01.2017 0,8 0,0 -1,3 -1,4 -0,3 -2,5 91 0,0 199 0,3 1,2 --- ---
23.01.2017 0,9 -0,1 -5,7 -6,4 -1,7 -12,5 95 0,0 196 0,4 2,5 --- ---
22.01.2017 0,9 0,0 -6,7 -6,7 -0,7 -10,6 91 0,0 675 0,2 0,9 --- ---
21.01.2017 1,0 0,1 -4,5 -4,2 2,9 -8,8 78 0,0 856 0,4 2,0 --- ---
20.01.2017 1,1 0,2 -4,7 -4,4 2,8 -9,7 77 0,0 844 0,3 1,2 --- ---
19.01.2017 1,3 0,3 -5,4 -5,6 0,5 -10,3 80 0,0 872 0,4 2,0 --- ---
18.01.2017 1,6 0,6 -4,9 -5,2 -0,2 -8,8 87 0,0 757 0,5 2,4 --- ---
17.01.2017 1,8 1,1 -3,7 -3,6 -0,6 -8,0 85 0,0 496 0,8 2,1 --- ---
16.01.2017 1,9 1,3 -2,7 -2,8 -0,7 -4,6 85 0,0 782 0,9 3,3 --- ---
15.01.2017 2,0 1,5 -1,9 -1,3 1,2 -6,3 87 0,0 280 0,7 2,3 --- ---
14.01.2017 2,0 1,5 0,9 1,5 3,3 -0,5 80 0,0 544 1,6 4,2 --- ---
13.01.2017 2,0 1,6 0,6 1,3 3,9 -0,9 85 0,0 449 1,7 5,6 --- ---
12.01.2017 1,6 1,3 2,6 3,4 4,8 0,4 74 0,0 312 1,5 4,0 --- ---
11.01.2017 1,3 0,7 1,2 1,9 4,9 -0,3 84 0,0 210 2,0 4,5 --- ---
10.01.2017 1,3 0,4 0,3 0,6 1,4 -0,1 82 0,1 272 1,5 3,6 --- ---
09.01.2017 1,2 0,3 0,0 0,3 1,3 -1,1 87 0,0 328 1,0 2,7 --- ---
08.01.2017 1,3 0,2 -0,8 -0,8 1,3 -3,6 96 0,0 227 0,3 1,2 --- ---
07.01.2017 1,4 0,1 -5,4 -5,8 -3,6 -8,7 81 0,0 247 1,4 3,0 --- ---
06.01.2017 1,9 0,4 -8,0 -8,3 -4,4 -11,7 80 0,0 678 0,5 2,5 --- ---
05.01.2017 2,7 1,6 -3,5 -2,7 0,2 -8,3 68 0,2 521 1,6 5,2 --- ---
04.01.2017 2,8 2,4 2,0 3,0 4,7 0,1 77 0,5 435 2,1 5,8 --- ---
03.01.2017 2,4 1,8 0,8 1,5 3,6 -0,5 86 0,0 216 1,2 3,3 --- ---
02.01.2017 2,3 1,3 -0,5 -0,1 2,1 -2,3 91 0,3 299 0,8 2,7 --- ---
01.01.2017 2,5 1,2 -3,5 -3,7 -2,0 -5,5 91 0,0 246 1,8 3,4 --- ---

Mittelwerte (Temperaturen, Strahlung, rel. Feuchte, Wind), Summe (Regen) für 2017
11,9 11,9 11,3 10,8 75 522 2.269 0,8

Landesbetrieb Landwirtschaft Hessen 2009

      Werte bis 5 Uhr SommerzeitCSV-Datei: Harleshausen17.csvDiagramm: Harleshausen